createdAt,value
2023-09-20T00:00:55.608Z,10.93
2023-09-20T00:06:11.099Z,10.88
2023-09-20T00:11:16.986Z,10.84
2023-09-20T00:16:21.233Z,10.82
2023-09-20T00:21:25.516Z,10.77
2023-09-20T00:26:29.808Z,10.71
2023-09-20T00:31:33.740Z,10.66
2023-09-20T00:36:37.091Z,10.64
2023-09-20T00:41:40.400Z,10.64
2023-09-20T00:46:43.910Z,10.64
2023-09-20T00:51:48.656Z,10.64
2023-09-20T00:56:51.865Z,10.65
2023-09-20T01:01:56.008Z,10.65
2023-09-20T01:06:59.715Z,10.64
2023-09-20T01:12:03.946Z,10.62
2023-09-20T01:17:11.823Z,10.59
2023-09-20T01:22:16.722Z,10.53
2023-09-20T01:27:20.024Z,10.49
2023-09-20T01:32:23.295Z,10.45
2023-09-20T01:37:26.644Z,10.44
2023-09-20T01:42:29.749Z,10.44
2023-09-20T01:47:34.261Z,10.48
2023-09-20T01:52:38.339Z,10.59
2023-09-20T01:57:41.535Z,10.72
2023-09-20T02:02:46.305Z,10.80
2023-09-20T02:07:50.297Z,10.86
2023-09-20T02:12:58.132Z,10.93
2023-09-20T02:18:07.233Z,11.00
2023-09-20T02:23:15.423Z,11.01
2023-09-20T02:28:19.327Z,11.03
2023-09-20T02:33:22.573Z,11.08
2023-09-20T02:38:29.707Z,11.14
2023-09-20T02:43:33.137Z,11.15
2023-09-20T02:48:36.445Z,11.14
2023-09-20T02:53:39.472Z,11.12
2023-09-20T02:58:42.978Z,11.12
2023-09-20T03:03:46.448Z,11.13
2023-09-20T03:08:49.824Z,11.14
2023-09-20T03:13:53.708Z,11.11
2023-09-20T03:18:57.123Z,11.10
2023-09-20T03:24:01.050Z,11.09
2023-09-20T03:29:05.096Z,11.11
2023-09-20T03:34:10.228Z,11.15
2023-09-20T03:39:14.371Z,11.17
2023-09-20T03:44:20.469Z,11.18
2023-09-20T03:49:23.745Z,11.17
2023-09-20T03:54:27.364Z,11.15
2023-09-20T03:59:33.480Z,11.15
2023-09-20T04:04:37.262Z,11.17
2023-09-20T04:09:40.479Z,11.19
2023-09-20T04:14:43.901Z,11.22
2023-09-20T04:19:47.292Z,11.25
2023-09-20T04:24:50.297Z,11.28
2023-09-20T04:29:54.380Z,11.35
2023-09-20T04:34:58.047Z,11.45
2023-09-20T04:40:01.463Z,11.56
2023-09-20T04:45:08.951Z,11.67
2023-09-20T04:50:14.523Z,11.79
2023-09-20T04:55:18.475Z,11.95
2023-09-20T05:00:27.931Z,12.14
2023-09-20T05:05:31.657Z,12.34
2023-09-20T05:10:35.697Z,12.54
2023-09-20T05:15:39.433Z,12.75
2023-09-20T05:20:43.954Z,13.02
2023-09-20T05:25:47.251Z,14.03
2023-09-20T05:30:51.030Z,15.93
2023-09-20T05:35:54.570Z,17.97
2023-09-20T05:40:58.215Z,19.81
2023-09-20T05:46:05.799Z,21.41
2023-09-20T05:51:09.930Z,22.84
2023-09-20T05:56:13.495Z,24.27
2023-09-20T06:01:19.767Z,25.43
2023-09-20T06:06:23.362Z,26.22
2023-09-20T06:11:26.802Z,27.32
2023-09-20T06:16:30.203Z,28.58
2023-09-20T06:21:33.633Z,29.75
2023-09-20T06:26:39.692Z,30.68
2023-09-20T06:31:42.971Z,31.44
2023-09-20T06:36:47.302Z,32.46
2023-09-20T06:41:51.013Z,33.63
2023-09-20T06:46:54.806Z,34.36
2023-09-20T06:52:00.218Z,34.72
2023-09-20T06:57:05.038Z,34.92
2023-09-20T07:02:09.049Z,35.09
2023-09-20T07:07:14.331Z,35.35
2023-09-20T07:12:17.543Z,35.98
2023-09-20T07:17:20.978Z,36.94
2023-09-20T07:22:25.231Z,37.56
2023-09-20T07:27:28.492Z,38.11
2023-09-20T07:32:32.003Z,38.29
2023-09-20T07:37:35.320Z,38.21
2023-09-20T07:42:38.734Z,37.83
2023-09-20T07:47:45.011Z,37.75
2023-09-20T07:52:51.813Z,38.11
2023-09-20T07:57:59.724Z,38.25
2023-09-20T08:03:03.135Z,38.72
2023-09-20T08:08:08.337Z,39.06
2023-09-20T08:13:12.964Z,39.82
2023-09-20T08:18:34.935Z,39.92
2023-09-20T08:23:57.240Z,39.04
2023-09-20T08:29:19.409Z,38.18
2023-09-20T08:34:41.544Z,38.46
2023-09-20T08:40:03.828Z,38.76
2023-09-20T08:45:28.919Z,38.89
2023-09-20T08:50:54.286Z,38.92
2023-09-20T08:56:17.147Z,38.56
2023-09-20T09:01:22.330Z,37.74
2023-09-20T09:06:26.410Z,36.98
2023-09-20T09:11:30.787Z,35.59
2023-09-20T09:16:35.630Z,33.90
2023-09-20T09:21:39.418Z,32.99
2023-09-20T09:26:47.057Z,33.22
2023-09-20T09:31:53.415Z,33.89
2023-09-20T09:36:57.101Z,35.26
2023-09-20T09:42:01.970Z,37.14
2023-09-20T09:47:05.888Z,37.98
2023-09-20T09:52:09.406Z,37.84
2023-09-20T09:57:12.613Z,38.10
2023-09-20T10:02:18.761Z,38.40
2023-09-20T10:07:26.101Z,37.53
2023-09-20T10:12:33.043Z,36.33
2023-09-20T10:17:45.809Z,34.27
2023-09-20T10:22:49.546Z,31.80
2023-09-20T10:27:53.886Z,30.00
2023-09-20T10:32:59.844Z,28.51
2023-09-20T10:38:06.641Z,27.32
2023-09-20T10:43:09.850Z,26.48
2023-09-20T10:48:16.144Z,26.01
2023-09-20T10:53:20.787Z,25.75
2023-09-20T10:58:24.801Z,25.52
2023-09-20T11:03:30.134Z,25.41
2023-09-20T11:08:33.342Z,25.41
2023-09-20T11:13:36.880Z,25.51
2023-09-20T11:18:41.470Z,25.43
2023-09-20T11:23:45.597Z,25.24
2023-09-20T11:28:49.066Z,25.37
2023-09-20T11:34:03.693Z,25.31
2023-09-20T11:39:07.775Z,25.09
2023-09-20T11:44:11.308Z,24.87
2023-09-20T11:49:15.621Z,24.71
2023-09-20T11:54:18.777Z,24.59
2023-09-20T11:59:22.087Z,24.69
2023-09-20T12:04:26.174Z,25.00
2023-09-20T12:09:29.480Z,25.18
2023-09-20T12:14:36.209Z,25.09
2023-09-20T12:19:39.683Z,24.85
2023-09-20T12:24:42.990Z,24.70
2023-09-20T12:29:46.451Z,24.70
2023-09-20T12:34:50.023Z,24.64
2023-09-20T12:39:54.357Z,24.51
2023-09-20T12:44:58.896Z,24.40
2023-09-20T12:50:04.823Z,24.35
2023-09-20T12:55:08.996Z,24.37
2023-09-20T13:00:26.464Z,24.35
2023-09-20T13:05:44.129Z,24.31
2023-09-20T13:10:53.579Z,24.09
2023-09-20T13:16:02.364Z,24.00
2023-09-20T13:21:06.307Z,24.01
2023-09-20T13:26:10.147Z,24.05
2023-09-20T13:31:15.044Z,23.96
2023-09-20T13:36:18.705Z,23.80
2023-09-20T13:41:23.066Z,23.73
2023-09-20T13:46:27.234Z,23.70
2023-09-20T13:51:30.576Z,23.65
2023-09-20T13:56:39.873Z,23.61
2023-09-20T14:01:43.276Z,23.62
2023-09-20T14:06:47.471Z,23.56
2023-09-20T14:11:50.591Z,23.47
2023-09-20T14:16:55.013Z,23.39
2023-09-20T14:21:58.549Z,23.29
2023-09-20T14:27:03.669Z,23.20
2023-09-20T14:32:06.891Z,23.08
2023-09-20T14:37:10.405Z,23.01
2023-09-20T14:42:14.486Z,22.95
2023-09-20T14:47:17.649Z,22.88
2023-09-20T14:52:21.060Z,22.77
2023-09-20T14:57:25.389Z,22.69
2023-09-20T15:02:28.883Z,22.61
2023-09-20T15:07:32.728Z,22.55
2023-09-20T15:12:43.388Z,22.52
2023-09-20T15:17:49.746Z,22.42
2023-09-20T15:22:54.441Z,22.33
2023-09-20T15:28:00.663Z,22.22
2023-09-20T15:33:04.983Z,22.10
2023-09-20T15:38:09.414Z,21.94
2023-09-20T15:43:12.589Z,21.78
2023-09-20T15:48:19.937Z,21.64
2023-09-20T15:53:23.643Z,21.47
2023-09-20T15:58:27.957Z,21.29
2023-09-20T16:03:33.900Z,21.10
2023-09-20T16:08:37.473Z,20.89
2023-09-20T16:13:40.924Z,20.69
2023-09-20T16:18:44.532Z,20.50
2023-09-20T16:23:50.378Z,20.29
2023-09-20T16:28:53.553Z,20.12
2023-09-20T16:33:56.985Z,19.97
2023-09-20T16:39:00.544Z,19.82
2023-09-20T16:44:04.363Z,19.65
2023-09-20T16:49:07.500Z,19.43
2023-09-20T16:54:11.269Z,19.19
2023-09-20T16:59:14.847Z,18.94
2023-09-20T17:04:18.534Z,18.67
2023-09-20T17:09:24.639Z,18.43
2023-09-20T17:14:29.956Z,18.21
2023-09-20T17:19:33.819Z,17.98
2023-09-20T17:24:38.056Z,17.80
2023-09-20T17:29:41.585Z,17.62
2023-09-20T17:34:44.772Z,17.46
2023-09-20T17:39:48.808Z,17.31
2023-09-20T17:44:52.099Z,17.15
2023-09-20T17:49:56.146Z,17.00
2023-09-20T17:54:59.659Z,16.84
2023-09-20T18:00:03.062Z,16.70
2023-09-20T18:05:12.142Z,16.58
2023-09-20T18:10:16.672Z,16.46
2023-09-20T18:15:20.483Z,16.37
2023-09-20T18:20:25.238Z,16.29
2023-09-20T18:25:28.763Z,16.19
2023-09-20T18:30:33.886Z,16.06
2023-09-20T18:35:39.596Z,15.93
2023-09-20T18:40:44.884Z,15.78
2023-09-20T18:45:48.238Z,15.68
2023-09-20T18:50:53.875Z,15.62
2023-09-20T18:56:00.296Z,15.57
2023-09-20T19:01:14.466Z,15.50
2023-09-20T19:06:21.425Z,15.41
2023-09-20T19:11:26.854Z,15.32
2023-09-20T19:16:30.909Z,15.29
2023-09-20T19:21:35.478Z,15.29
2023-09-20T19:26:39.529Z,15.28
2023-09-20T19:31:44.493Z,15.27
2023-09-20T19:36:49.703Z,15.24
2023-09-20T19:41:52.962Z,15.18
2023-09-20T19:46:57.043Z,15.10
2023-09-20T19:52:00.653Z,15.01
2023-09-20T19:57:04.042Z,14.93
2023-09-20T20:02:07.486Z,14.86
2023-09-20T20:07:26.897Z,14.79
2023-09-20T20:12:31.409Z,14.73
2023-09-20T20:17:37.687Z,14.66
2023-09-20T20:22:41.134Z,14.60
2023-09-20T20:27:46.820Z,14.52
2023-09-20T20:32:51.266Z,14.44
2023-09-20T20:37:56.445Z,14.33
2023-09-20T20:42:59.665Z,14.27
2023-09-20T20:48:03.536Z,14.27
2023-09-20T20:53:16.027Z,14.29
2023-09-20T20:58:20.526Z,14.30
2023-09-20T21:03:24.767Z,14.29
2023-09-20T21:08:28.304Z,14.26
2023-09-20T21:13:31.820Z,14.21
2023-09-20T21:18:35.179Z,14.15
2023-09-20T21:23:39.175Z,14.07
2023-09-20T21:28:44.058Z,14.01
2023-09-20T21:33:48.634Z,13.97
2023-09-20T21:38:52.199Z,13.95
2023-09-20T21:43:56.909Z,13.95
2023-09-20T21:49:00.194Z,13.95
2023-09-20T21:54:04.405Z,13.91
2023-09-20T21:59:07.654Z,13.87
2023-09-20T22:04:11.168Z,13.82
2023-09-20T22:09:17.657Z,13.78
2023-09-20T22:14:23.833Z,13.74
2023-09-20T22:19:33.119Z,13.70
2023-09-20T22:24:36.701Z,13.66
2023-09-20T22:29:39.947Z,13.61
2023-09-20T22:34:43.526Z,13.56
2023-09-20T22:39:46.855Z,13.52
2023-09-20T22:44:50.314Z,13.46
2023-09-20T22:49:54.177Z,13.40
2023-09-20T22:55:00.868Z,13.38
2023-09-20T23:00:12.668Z,13.36
2023-09-20T23:05:16.246Z,13.35
2023-09-20T23:10:25.793Z,13.34
2023-09-20T23:15:32.341Z,13.32
2023-09-20T23:20:38.682Z,13.31
2023-09-20T23:25:42.889Z,13.29
2023-09-20T23:30:48.090Z,13.30
2023-09-20T23:35:58.585Z,13.32
2023-09-20T23:41:06.413Z,13.33
2023-09-20T23:46:11.220Z,13.32
2023-09-20T23:51:15.919Z,13.28
2023-09-20T23:56:19.638Z,13.26
